createdAt,value
2022-10-18T00:01:09.332Z,100312.16
2022-10-18T00:03:38.438Z,100317.72
2022-10-18T00:06:09.279Z,100314.00
2022-10-18T00:08:39.629Z,100313.31
2022-10-18T00:11:08.369Z,100312.28
2022-10-18T00:13:36.749Z,100309.31
2022-10-18T00:16:11.849Z,100305.31
2022-10-18T00:18:41.411Z,100312.00
2022-10-18T00:21:14.011Z,100303.16
2022-10-18T00:23:42.413Z,100303.31
2022-10-18T00:26:36.495Z,100301.69
2022-10-18T00:29:07.135Z,100299.81
2022-10-18T00:31:38.060Z,100304.88
2022-10-18T00:34:13.163Z,100299.16
2022-10-18T00:36:41.341Z,100301.69
2022-10-18T00:39:15.660Z,100296.88
2022-10-18T00:41:44.097Z,100296.22
2022-10-18T00:44:11.684Z,100289.81
2022-10-18T00:46:45.946Z,100282.47
2022-10-18T00:49:20.566Z,100277.41
2022-10-18T00:51:59.147Z,100280.97
2022-10-18T00:54:31.283Z,100282.72
2022-10-18T00:56:59.697Z,100279.38
2022-10-18T00:59:28.132Z,100264.59
2022-10-18T01:01:56.000Z,100267.13
2022-10-18T01:04:23.973Z,100272.34
2022-10-18T01:07:19.195Z,100258.44
2022-10-18T01:10:17.275Z,100258.44
2022-10-18T01:13:06.131Z,100264.41
2022-10-18T01:16:02.948Z,100267.19
2022-10-18T01:19:09.530Z,100267.00
2022-10-18T01:21:54.721Z,100260.44
2022-10-18T01:24:45.752Z,100269.75
2022-10-18T01:28:14.960Z,100254.84
2022-10-18T01:30:54.458Z,100257.25
2022-10-18T01:33:28.425Z,100251.66
2022-10-18T01:36:08.387Z,100247.41
2022-10-18T01:38:39.745Z,100253.53
2022-10-18T01:41:14.732Z,100248.16
2022-10-18T01:43:48.775Z,100234.84
2022-10-18T01:46:23.179Z,100245.19
2022-10-18T01:48:53.615Z,100243.47
2022-10-18T01:51:31.101Z,100221.56
2022-10-18T01:53:59.746Z,100236.09
2022-10-18T01:56:57.435Z,100232.59
2022-10-18T01:59:47.728Z,100236.97
2022-10-18T02:02:43.198Z,100234.72
2022-10-18T02:05:19.702Z,100228.53
2022-10-18T02:08:23.193Z,100225.56
2022-10-18T02:14:07.123Z,100229.28
2022-10-18T02:16:51.820Z,100225.28
2022-10-18T02:19:36.509Z,100223.66
2022-10-18T02:22:07.197Z,100221.03
2022-10-18T02:24:44.857Z,100220.47
2022-10-18T02:27:13.139Z,100220.69
2022-10-18T02:29:42.972Z,100211.63
2022-10-18T02:32:38.516Z,100224.63
2022-10-18T02:35:14.189Z,100222.22
2022-10-18T02:37:43.374Z,100201.41
2022-10-18T02:40:11.683Z,100209.84
2022-10-18T02:42:49.285Z,100207.56
2022-10-18T02:45:17.714Z,100207.94
2022-10-18T02:47:45.781Z,100204.84
2022-10-18T02:50:14.290Z,100207.63
2022-10-18T02:52:41.911Z,100208.88
2022-10-18T02:55:10.438Z,100209.94
2022-10-18T02:57:38.408Z,100209.94
2022-10-18T03:00:08.155Z,100212.72
2022-10-18T03:02:36.025Z,100213.88
2022-10-18T03:05:04.384Z,100214.25
2022-10-18T03:07:32.277Z,100215.44
2022-10-18T03:10:00.129Z,100211.41
2022-10-18T03:12:27.806Z,100210.59
2022-10-18T03:14:55.447Z,100213.00
2022-10-18T03:17:23.257Z,100215.53
2022-10-18T03:19:51.042Z,100218.03
2022-10-18T03:22:18.800Z,100214.72
2022-10-18T03:24:46.599Z,100210.97
2022-10-18T03:27:14.309Z,100207.31
2022-10-18T03:29:41.985Z,100217.84
2022-10-18T03:32:09.909Z,100215.56
2022-10-18T03:34:37.628Z,100221.28
2022-10-18T03:37:05.590Z,100219.00
2022-10-18T03:39:33.413Z,100221.78
2022-10-18T03:42:01.151Z,100220.53
2022-10-18T03:44:28.789Z,100225.94
2022-10-18T03:46:56.534Z,100218.72
2022-10-18T03:49:24.310Z,100223.22
2022-10-18T03:51:52.101Z,100220.00
2022-10-18T03:54:19.891Z,100228.25
2022-10-18T03:56:47.594Z,100215.84
2022-10-18T03:59:17.099Z,100223.22
2022-10-18T04:01:44.866Z,100222.53
2022-10-18T04:04:12.565Z,100222.53
2022-10-18T04:06:41.320Z,100225.06
2022-10-18T04:09:10.281Z,100207.88
2022-10-18T04:11:38.280Z,100227.38
2022-10-18T04:14:06.331Z,100219.88
2022-10-18T04:16:34.150Z,100224.13
2022-10-18T04:19:01.919Z,100226.22
2022-10-18T04:21:29.635Z,100229.88
2022-10-18T04:23:57.328Z,100225.88
2022-10-18T04:26:25.138Z,100226.91
2022-10-18T04:28:52.862Z,100216.97
2022-10-18T04:31:20.593Z,100226.25
2022-10-18T04:33:48.328Z,100215.44
2022-10-18T04:36:16.010Z,100214.22
2022-10-18T04:38:43.688Z,100210.22
2022-10-18T04:41:11.366Z,100207.22
2022-10-18T04:43:39.094Z,100211.59
2022-10-18T04:46:06.874Z,100199.56
2022-10-18T04:48:34.589Z,100204.34
2022-10-18T04:51:02.254Z,100204.59
2022-10-18T04:53:30.022Z,100197.59
2022-10-18T04:55:57.757Z,100201.97
2022-10-18T04:58:25.642Z,100205.28
2022-10-18T05:00:54.238Z,100198.88
2022-10-18T05:03:21.942Z,100204.00
2022-10-18T05:06:01.387Z,100198.78
2022-10-18T05:08:34.817Z,100196.94
2022-10-18T05:11:03.945Z,100201.28
2022-10-18T05:13:31.872Z,100199.69
2022-10-18T05:16:00.467Z,100194.66
2022-10-18T05:18:28.536Z,100194.06
2022-10-18T05:20:57.494Z,100201.63
2022-10-18T05:23:25.350Z,100202.53
2022-10-18T05:25:54.723Z,100200.00
2022-10-18T05:28:41.008Z,100204.94
2022-10-18T05:31:11.730Z,100209.97
2022-10-18T05:33:39.593Z,100202.53
2022-10-18T05:36:07.857Z,100215.50
2022-10-18T05:38:42.163Z,100207.81
2022-10-18T05:41:11.340Z,100214.31
2022-10-18T05:43:40.760Z,100214.81
2022-10-18T05:46:13.728Z,100212.84
2022-10-18T05:48:44.759Z,100212.50
2022-10-18T05:51:12.529Z,100205.84
2022-10-18T05:53:40.321Z,100212.94
2022-10-18T05:56:08.509Z,100211.00
2022-10-18T05:58:36.640Z,100213.16
2022-10-18T06:01:06.247Z,100210.16
2022-10-18T06:03:34.825Z,100217.94
2022-10-18T06:06:09.065Z,100225.06
2022-10-18T06:08:38.922Z,100214.59
2022-10-18T06:11:16.396Z,100212.16
2022-10-18T06:13:47.299Z,100211.56
2022-10-18T06:16:18.504Z,100216.25
2022-10-18T06:18:55.401Z,100218.75
2022-10-18T06:21:25.011Z,100216.31
2022-10-18T06:23:55.945Z,100221.41
2022-10-18T06:26:24.473Z,100221.34
2022-10-18T06:28:52.214Z,100229.81
2022-10-18T06:31:21.335Z,100233.22
2022-10-18T06:33:49.392Z,100232.47
2022-10-18T06:36:22.326Z,100235.88
2022-10-18T06:38:50.896Z,100236.50
2022-10-18T06:41:22.132Z,100235.59
2022-10-18T06:43:51.923Z,100233.66
2022-10-18T06:46:20.311Z,100233.44
2022-10-18T06:48:48.089Z,100238.16
2022-10-18T06:51:15.885Z,100238.72
2022-10-18T06:53:44.510Z,100234.09
2022-10-18T06:56:21.285Z,100227.63
2022-10-18T06:58:49.305Z,100235.75
2022-10-18T07:01:18.787Z,100240.97
2022-10-18T07:03:48.837Z,100239.66
2022-10-18T07:06:18.691Z,100229.78
2022-10-18T07:08:49.416Z,100235.63
2022-10-18T07:11:26.269Z,100236.38
2022-10-18T07:14:02.311Z,100236.50
2022-10-18T07:16:32.017Z,100222.16
2022-10-18T07:18:59.895Z,100227.44
2022-10-18T07:21:28.110Z,100232.44
2022-10-18T07:23:57.151Z,100222.44
2022-10-18T07:26:29.279Z,100225.06
2022-10-18T07:29:09.675Z,100226.25
2022-10-18T07:31:41.360Z,100223.91
2022-10-18T07:34:13.308Z,100219.97
2022-10-18T07:36:41.693Z,100224.88
2022-10-18T07:39:10.269Z,100220.28
2022-10-18T07:41:38.227Z,100218.53
2022-10-18T07:44:06.180Z,100221.59
2022-10-18T07:46:33.957Z,100216.78
2022-10-18T07:49:01.881Z,100210.72
2022-10-18T07:51:32.771Z,100203.19
2022-10-18T07:54:00.534Z,100197.66
2022-10-18T07:56:28.484Z,100191.16
2022-10-18T07:58:57.014Z,100190.25
2022-10-18T08:01:25.576Z,100191.25
2022-10-18T08:03:53.787Z,100185.31
2022-10-18T08:06:23.813Z,100166.66
2022-10-18T08:08:52.312Z,100172.00
2022-10-18T08:11:24.228Z,100166.16
2022-10-18T08:13:53.956Z,100169.41
2022-10-18T08:16:28.467Z,100169.47
2022-10-18T08:18:58.948Z,100155.75
2022-10-18T08:21:27.338Z,100150.97
2022-10-18T08:23:55.328Z,100154.63
2022-10-18T08:26:23.983Z,100143.91
2022-10-18T08:28:58.373Z,100141.19
2022-10-18T08:31:31.707Z,100134.88
2022-10-18T08:34:00.145Z,100128.41
2022-10-18T08:36:27.934Z,100128.66
2022-10-18T08:38:55.711Z,100124.91
2022-10-18T08:41:48.063Z,100125.91
2022-10-18T08:44:21.196Z,100116.38
2022-10-18T08:46:55.311Z,100118.78
2022-10-18T08:49:50.542Z,100129.19
2022-10-18T08:52:57.821Z,100118.16
2022-10-18T08:55:36.523Z,100109.56
2022-10-18T08:58:33.428Z,100109.03
2022-10-18T09:01:32.066Z,100108.72
2022-10-18T09:04:42.311Z,100109.28
2022-10-18T09:07:43.927Z,100109.97
2022-10-18T09:10:53.134Z,100112.56
2022-10-18T09:13:51.338Z,100101.16
2022-10-18T09:16:58.613Z,100100.34
2022-10-18T09:19:47.817Z,100100.78
2022-10-18T09:22:20.002Z,100099.22
2022-10-18T09:25:11.639Z,100093.03
2022-10-18T09:27:53.910Z,100089.59
2022-10-18T09:30:45.531Z,100090.00
2022-10-18T09:33:28.162Z,100082.00
2022-10-18T09:36:06.631Z,100083.53
2022-10-18T09:38:49.949Z,100073.59
2022-10-18T09:41:52.601Z,100068.97
2022-10-18T09:44:30.328Z,100063.78
2022-10-18T09:47:08.192Z,100058.47
2022-10-18T09:49:51.168Z,100066.75
2022-10-18T09:52:32.178Z,100055.25
2022-10-18T09:55:05.446Z,100053.25
2022-10-18T09:57:45.083Z,100053.81
2022-10-18T10:00:23.048Z,100047.31
2022-10-18T10:02:50.830Z,100036.78
2022-10-18T10:05:19.948Z,100030.00
2022-10-18T10:07:49.223Z,100018.66
2022-10-18T10:10:29.736Z,100022.41
2022-10-18T10:13:23.165Z,100014.91
2022-10-18T10:16:02.403Z,100011.16
2022-10-18T10:18:34.746Z,100002.66
2022-10-18T10:21:07.282Z,99998.09
2022-10-18T10:23:45.026Z,99995.31
2022-10-18T10:26:34.295Z,99980.00
2022-10-18T10:29:02.370Z,99970.84
2022-10-18T10:31:32.223Z,99967.84
2022-10-18T10:34:14.942Z,99956.88
2022-10-18T10:36:54.796Z,99963.63
2022-10-18T10:39:24.710Z,99950.16
2022-10-18T10:42:00.345Z,99954.31
2022-10-18T10:44:36.024Z,99931.47
2022-10-18T10:47:04.844Z,99934.97
2022-10-18T10:49:40.280Z,99935.13
2022-10-18T10:52:27.254Z,99917.78
2022-10-18T10:57:49.923Z,99916.50
2022-10-18T11:00:44.574Z,99913.19
2022-10-18T11:03:28.689Z,99910.31
2022-10-18T11:06:00.900Z,99903.63
2022-10-18T11:08:42.161Z,99902.56
2022-10-18T11:11:23.323Z,99895.50
2022-10-18T11:14:26.116Z,99892.25
2022-10-18T11:17:21.453Z,99888.13
2022-10-18T11:20:36.490Z,99885.34
2022-10-18T11:23:11.997Z,99882.47
2022-10-18T11:25:50.338Z,99881.34
2022-10-18T11:29:02.771Z,99862.53
2022-10-18T11:31:48.947Z,99870.41
2022-10-18T11:35:12.705Z,99864.22
2022-10-18T11:37:56.407Z,99865.56
2022-10-18T11:40:42.319Z,99851.97
2022-10-18T11:43:18.995Z,99851.28
2022-10-18T11:46:11.809Z,99852.97
2022-10-18T11:48:56.076Z,99844.56
2022-10-18T11:52:14.364Z,99838.13
2022-10-18T11:54:49.578Z,99838.69
2022-10-18T11:57:20.193Z,99827.31
2022-10-18T12:00:16.689Z,99823.72
2022-10-18T12:03:18.587Z,99825.28
2022-10-18T12:05:50.192Z,99820.00
2022-10-18T12:08:49.469Z,99820.13
2022-10-18T12:11:24.774Z,99819.34
2022-10-18T12:13:59.379Z,99818.19
2022-10-18T12:16:50.550Z,99801.75
2022-10-18T12:19:33.047Z,99805.91
2022-10-18T12:22:24.398Z,99808.50
2022-10-18T12:24:52.499Z,99806.69
2022-10-18T12:27:42.871Z,99798.81
2022-10-18T12:30:27.398Z,99793.63
2022-10-18T12:33:27.176Z,99791.94
2022-10-18T12:36:08.773Z,99790.13
2022-10-18T12:38:45.759Z,99790.34
2022-10-18T12:41:28.851Z,99786.75
2022-10-18T12:44:17.813Z,99783.59
2022-10-18T12:47:04.448Z,99778.53
2022-10-18T12:49:41.472Z,99776.97
2022-10-18T12:52:24.831Z,99772.34
2022-10-18T12:55:05.833Z,99769.50
2022-10-18T12:57:52.096Z,99758.72
2022-10-18T13:00:31.702Z,99760.72
2022-10-18T13:03:16.655Z,99750.84
2022-10-18T13:05:54.901Z,99740.97
2022-10-18T13:08:33.292Z,99748.25
2022-10-18T13:11:10.070Z,99739.00
2022-10-18T13:14:16.512Z,99742.59
2022-10-18T13:17:12.521Z,99745.34
2022-10-18T13:20:24.980Z,99730.44
2022-10-18T13:23:31.697Z,99733.72
2022-10-18T13:26:16.219Z,99737.44
2022-10-18T13:28:59.186Z,99728.88
2022-10-18T13:31:40.897Z,99722.34
2022-10-18T13:34:40.310Z,99716.16
2022-10-18T13:37:10.719Z,99722.03
2022-10-18T13:39:40.104Z,99720.78
2022-10-18T13:42:27.926Z,99729.88
2022-10-18T13:45:33.511Z,99709.63
2022-10-18T13:48:32.068Z,99715.59
2022-10-18T13:51:46.971Z,99719.75
2022-10-18T13:54:34.921Z,99722.59
2022-10-18T13:57:43.334Z,99712.47
2022-10-18T14:00:33.837Z,99715.69
2022-10-18T14:03:57.076Z,99708.97
2022-10-18T14:06:35.370Z,99703.78
2022-10-18T14:09:40.201Z,99706.31
2022-10-18T14:12:29.195Z,99705.53
2022-10-18T14:15:07.854Z,99704.16
2022-10-18T14:17:52.895Z,99709.25
2022-10-18T14:20:55.359Z,99696.56
2022-10-18T14:23:44.876Z,99696.78
2022-10-18T14:26:19.739Z,99694.22
2022-10-18T14:29:07.497Z,99694.66
2022-10-18T14:31:35.714Z,99696.69
2022-10-18T14:34:03.731Z,99690.50
2022-10-18T14:36:41.092Z,99691.50
2022-10-18T14:39:24.438Z,99697.47
2022-10-18T14:41:57.351Z,99696.38
2022-10-18T14:44:31.487Z,99688.03
2022-10-18T14:47:14.924Z,99691.81
2022-10-18T14:49:47.459Z,99686.28
2022-10-18T14:52:26.149Z,99677.09
2022-10-18T14:54:58.961Z,99680.06
2022-10-18T14:57:36.992Z,99678.19
2022-10-18T15:00:14.382Z,99677.78
2022-10-18T15:02:42.287Z,99678.47
2022-10-18T15:05:21.211Z,99672.63
2022-10-18T15:07:51.854Z,99664.00
2022-10-18T15:10:26.184Z,99683.09
2022-10-18T15:13:16.196Z,99672.38
2022-10-18T15:15:45.288Z,99678.31
2022-10-18T15:18:33.733Z,99682.22
2022-10-18T15:21:10.823Z,99675.25
2022-10-18T15:23:38.700Z,99676.44
2022-10-18T15:26:12.728Z,99681.63
2022-10-18T15:28:51.450Z,99679.41
2022-10-18T15:31:28.196Z,99679.09
2022-10-18T15:34:23.671Z,99673.94
2022-10-18T15:36:55.269Z,99682.84
2022-10-18T15:39:33.419Z,99685.75
2022-10-18T15:42:03.205Z,99677.41
2022-10-18T15:44:45.969Z,99682.72
2022-10-18T15:47:13.830Z,99685.84
2022-10-18T15:49:44.165Z,99695.03
2022-10-18T15:52:43.281Z,99689.16
2022-10-18T15:55:32.958Z,99682.38
2022-10-18T15:58:27.277Z,99695.22
2022-10-18T16:01:00.733Z,99698.88
2022-10-18T16:03:29.067Z,99706.81
2022-10-18T16:06:04.996Z,99705.69
2022-10-18T16:08:40.756Z,99706.50
2022-10-18T16:11:15.943Z,99714.06
2022-10-18T16:13:44.759Z,99708.59
2022-10-18T16:16:26.534Z,99713.34
2022-10-18T16:18:55.767Z,99709.25
2022-10-18T16:21:33.922Z,99710.63
2022-10-18T16:24:02.131Z,99706.09
2022-10-18T16:26:30.598Z,99705.69
2022-10-18T16:28:59.366Z,99720.91
2022-10-18T16:31:32.544Z,99720.94
2022-10-18T16:34:02.007Z,99728.41
2022-10-18T16:36:33.389Z,99723.47
2022-10-18T16:39:08.171Z,99733.31
2022-10-18T16:41:35.995Z,99737.25
2022-10-18T16:44:04.069Z,99735.44
2022-10-18T16:46:35.105Z,99731.09
2022-10-18T16:49:04.203Z,99731.06
2022-10-18T16:51:32.158Z,99743.66
2022-10-18T16:54:00.019Z,99737.31
2022-10-18T16:56:31.721Z,99743.59
2022-10-18T16:59:00.600Z,99742.75
2022-10-18T17:01:28.711Z,99738.72
2022-10-18T17:03:56.608Z,99748.16
2022-10-18T17:06:30.904Z,99741.63
2022-10-18T17:08:59.386Z,99743.34
2022-10-18T17:11:28.551Z,99744.47
2022-10-18T17:13:56.483Z,99745.22
2022-10-18T17:16:34.841Z,99741.59
2022-10-18T17:19:06.142Z,99744.03
2022-10-18T17:21:34.381Z,99740.63
2022-10-18T17:24:03.371Z,99740.97
2022-10-18T17:26:31.593Z,99745.22
2022-10-18T17:29:04.356Z,99746.34
2022-10-18T17:31:32.977Z,99756.50
2022-10-18T17:34:02.026Z,99753.72
2022-10-18T17:36:32.427Z,99755.03
2022-10-18T17:39:00.608Z,99755.34
2022-10-18T17:41:28.618Z,99761.16
2022-10-18T17:43:56.777Z,99756.59
2022-10-18T17:46:24.837Z,99763.19
2022-10-18T17:48:54.079Z,99756.81
2022-10-18T17:51:22.471Z,99753.78
2022-10-18T17:53:50.429Z,99756.25
2022-10-18T17:56:18.239Z,99753.00
2022-10-18T17:58:49.839Z,99756.88
2022-10-18T18:01:23.259Z,99756.38
2022-10-18T18:04:03.432Z,99761.63
2022-10-18T18:06:34.961Z,99761.72
2022-10-18T18:09:14.684Z,99759.91
2022-10-18T18:11:45.592Z,99759.00
2022-10-18T18:14:14.349Z,99751.72
2022-10-18T18:16:46.532Z,99757.31
2022-10-18T18:19:15.682Z,99754.34
2022-10-18T18:21:43.597Z,99748.16
2022-10-18T18:24:14.131Z,99747.75
2022-10-18T18:26:42.101Z,99747.09
2022-10-18T18:29:13.021Z,99749.53
2022-10-18T18:31:43.770Z,99743.28
2022-10-18T18:34:12.093Z,99752.13
2022-10-18T18:36:40.174Z,99750.78
2022-10-18T18:39:09.191Z,99759.91
2022-10-18T18:41:38.471Z,99754.06
2022-10-18T18:44:06.845Z,99741.03
2022-10-18T18:46:38.587Z,99758.25
2022-10-18T18:49:08.206Z,99756.66
2022-10-18T18:51:40.428Z,99743.31
2022-10-18T18:54:10.997Z,99746.34
2022-10-18T18:56:38.791Z,99748.16
2022-10-18T18:59:07.033Z,99745.75
2022-10-18T19:01:38.588Z,99749.63
2022-10-18T19:04:09.953Z,99748.03
2022-10-18T19:06:45.311Z,99742.63
2022-10-18T19:09:22.209Z,99746.19
2022-10-18T19:11:53.774Z,99748.13
2022-10-18T19:14:24.986Z,99744.81
2022-10-18T19:16:59.115Z,99749.63
2022-10-18T19:19:29.937Z,99750.63
2022-10-18T19:22:01.076Z,99746.66
2022-10-18T19:24:30.787Z,99747.16
2022-10-18T19:27:12.508Z,99735.25
2022-10-18T19:29:41.267Z,99744.38
2022-10-18T19:32:15.022Z,99741.06
2022-10-18T19:34:46.000Z,99729.78
2022-10-18T19:37:15.638Z,99742.06
2022-10-18T19:39:43.363Z,99739.19
2022-10-18T19:42:17.433Z,99735.84
2022-10-18T19:44:48.372Z,99732.72
2022-10-18T19:47:16.194Z,99742.09
2022-10-18T19:49:44.278Z,99737.34
2022-10-18T19:52:12.605Z,99746.22
2022-10-18T19:54:40.345Z,99741.94
2022-10-18T19:57:08.152Z,99740.34
2022-10-18T19:59:36.217Z,99736.41
2022-10-18T20:02:04.875Z,99735.91
2022-10-18T20:04:34.993Z,99733.41
2022-10-18T20:07:03.215Z,99741.03
2022-10-18T20:09:31.087Z,99731.50
2022-10-18T20:11:59.030Z,99731.84
2022-10-18T20:14:26.727Z,99734.97
2022-10-18T20:16:54.491Z,99726.09
2022-10-18T20:19:22.394Z,99724.34
2022-10-18T20:21:50.256Z,99726.38
2022-10-18T20:24:18.089Z,99733.88
2022-10-18T20:26:45.852Z,99729.09
2022-10-18T20:29:13.786Z,99731.50
2022-10-18T20:31:41.769Z,99737.03
2022-10-18T20:34:12.200Z,99731.50
2022-10-18T20:36:40.463Z,99735.13
2022-10-18T20:39:09.052Z,99731.78
2022-10-18T20:41:41.479Z,99723.84
2022-10-18T20:44:17.712Z,99728.94
2022-10-18T20:46:46.068Z,99725.75
2022-10-18T20:49:16.590Z,99724.94
2022-10-18T20:51:44.756Z,99726.97
2022-10-18T20:54:13.169Z,99720.63
2022-10-18T20:56:41.375Z,99714.94
2022-10-18T20:59:10.230Z,99714.44
2022-10-18T21:01:39.610Z,99710.00
2022-10-18T21:04:10.044Z,99722.22
2022-10-18T21:06:43.412Z,99729.34
2022-10-18T21:09:18.226Z,99723.13
2022-10-18T21:11:51.430Z,99714.41
2022-10-18T21:14:21.835Z,99724.06
2022-10-18T21:16:52.031Z,99716.59
2022-10-18T21:19:26.011Z,99719.00
2022-10-18T21:21:57.379Z,99715.50
2022-10-18T21:24:26.977Z,99712.78
2022-10-18T21:26:54.938Z,99708.94
2022-10-18T21:29:24.899Z,99711.59
2022-10-18T21:31:59.493Z,99714.91
2022-10-18T21:34:27.262Z,99708.25
2022-10-18T21:36:54.953Z,99703.00
2022-10-18T21:41:57.458Z,99684.81
2022-10-18T21:44:25.188Z,99695.06
2022-10-18T21:46:53.097Z,99703.16
2022-10-18T21:49:23.450Z,99681.03
2022-10-18T21:51:51.144Z,99660.81
2022-10-18T21:54:19.091Z,99680.34
2022-10-18T21:56:46.831Z,99677.03
2022-10-18T21:59:14.872Z,99681.41
2022-10-18T22:01:44.236Z,99672.81
2022-10-18T22:04:25.246Z,99666.31
2022-10-18T22:06:53.165Z,99669.91
2022-10-18T22:09:22.149Z,99664.19
2022-10-18T22:11:53.277Z,99669.25
2022-10-18T22:14:21.930Z,99662.78
2022-10-18T22:16:50.279Z,99667.69
2022-10-18T22:19:18.059Z,99663.56
2022-10-18T22:21:45.832Z,99660.88
2022-10-18T22:24:13.612Z,99663.56
2022-10-18T22:26:44.674Z,99661.03
2022-10-18T22:29:19.950Z,99659.59
2022-10-18T22:31:55.286Z,99652.94
2022-10-18T22:34:29.733Z,99660.66
2022-10-18T22:36:57.858Z,99660.66
2022-10-18T22:39:25.822Z,99654.00
2022-10-18T22:41:56.533Z,99660.19
2022-10-18T22:44:25.614Z,99662.56
2022-10-18T22:46:53.507Z,99663.66
2022-10-18T22:49:21.208Z,99659.69
2022-10-18T22:51:49.017Z,99657.75
2022-10-18T22:54:16.766Z,99659.63
2022-10-18T22:56:44.509Z,99656.09
2022-10-18T22:59:12.269Z,99661.47
2022-10-18T23:01:39.917Z,99671.28
2022-10-18T23:04:07.634Z,99668.09
2022-10-18T23:06:36.935Z,99661.72
2022-10-18T23:09:08.135Z,99658.41
2022-10-18T23:11:37.269Z,99666.94
2022-10-18T23:14:06.686Z,99670.00
2022-10-18T23:16:34.963Z,99665.88
2022-10-18T23:19:03.151Z,99673.75
2022-10-18T23:21:30.826Z,99682.28
2022-10-18T23:23:58.480Z,99675.78
2022-10-18T23:26:28.158Z,99662.84
2022-10-18T23:28:56.625Z,99671.44
2022-10-18T23:31:29.239Z,99684.41
2022-10-18T23:34:00.770Z,99678.97
2022-10-18T23:36:29.130Z,99677.53
2022-10-18T23:38:57.536Z,99678.09
2022-10-18T23:41:26.053Z,99678.09
2022-10-18T23:43:54.824Z,99675.34
2022-10-18T23:46:22.716Z,99669.38
2022-10-18T23:48:50.870Z,99660.09
2022-10-18T23:51:18.684Z,99671.16
2022-10-18T23:53:46.606Z,99668.91
2022-10-18T23:56:16.880Z,99671.09
2022-10-18T23:58:45.998Z,99667.22
